Time;durP1;ratioP1;P1;durP2;ratioP2;P2;SDS_P1;SDS_P2;PMS_P1;PMS_P2;Temp;Humidity;BMP_temperature;BMP_pressure;BME280_temperature;BME280_humidity;BME280_pressure;Samples;Min_cycle;Max_cycle;Signal;HPM_P1;HPM_P2
2022/09/20 00:01:35;;;;;;;9.68;3.70;;;;;;;29.57;29.21;100288.16;5026492;28;20061;-68
2022/09/20 00:04:05;;;;;;;6.97;4.10;;;;;;;29.57;28.53;100291.69;5022782;28;20119;-69
2022/09/20 00:06:35;;;;;;;10.02;4.20;;;;;;;29.54;28.70;100291.84;5017533;28;20067;-70
2022/09/20 00:09:05;;;;;;;7.35;3.67;;;;;;;29.53;30.03;100292.81;5026417;28;20057;-70
2022/09/20 00:11:35;;;;;;;5.57;3.20;;;;;;;29.52;30.25;100287.56;5026018;28;20573;-70
2022/09/20 00:14:07;;;;;;;6.82;3.70;;;;;;;29.42;30.26;100285.41;5015489;28;20049;-73
2022/09/20 00:16:37;;;;;;;7.20;3.67;;;;;;;29.37;30.54;100286.63;5020732;28;20046;-70
2022/09/20 00:19:07;;;;;;;6.72;3.47;;;;;;;29.32;30.02;100288.69;5023207;28;20121;-73
2022/09/20 00:21:37;;;;;;;5.22;3.72;;;;;;;29.31;29.52;100286.97;5018644;28;20076;-74
2022/09/20 00:24:06;;;;;;;5.85;3.50;;;;;;;29.26;29.23;100279.25;5018110;28;20117;-74
2022/09/20 00:26:35;;;;;;;8.45;3.67;;;;;;;29.24;28.70;100286.47;5022117;28;20053;-73
2022/09/20 00:29:04;;;;;;;8.70;3.40;;;;;;;29.19;30.43;100283.19;5021340;28;20477;-73
2022/09/20 00:31:34;;;;;;;6.13;3.47;;;;;;;29.15;30.47;100277.16;5017432;28;20045;-70
2022/09/20 00:36:50;;;;;;;6.07;3.80;;;;;;;29.02;28.73;100276.97;5020707;28;20072;-71
2022/09/20 00:39:19;;;;;;;7.40;3.40;;;;;;;28.98;30.03;100278.06;5019875;28;20041;-71
2022/09/20 00:41:47;;;;;;;8.07;3.38;;;;;;;28.93;29.18;100288.13;5018474;28;20137;-71
2022/09/20 00:44:57;;;;;;;10.80;3.65;;;;;;;28.85;29.52;100285.00;5025796;28;20509;-72
2022/09/20 00:47:36;;;;;;;6.95;3.80;;;;;;;28.82;29.88;100282.53;5005240;28;20100;-72
2022/09/20 00:50:15;;;;;;;6.30;3.72;;;;;;;28.77;30.76;100292.53;5018592;28;20050;-70
2022/09/20 00:52:49;;;;;;;5.25;3.05;;;;;;;28.72;31.70;100291.94;5020160;28;20077;-70
2022/09/20 00:55:25;;;;;;;6.72;3.75;;;;;;;28.61;32.47;100292.50;5026373;28;20056;-70
2022/09/20 00:57:55;;;;;;;5.93;3.88;;;;;;;28.52;33.07;100296.53;5025872;28;20053;-70
2022/09/20 01:00:24;;;;;;;8.15;3.95;;;;;;;28.45;33.30;100294.22;5019723;28;20050;-70
2022/09/20 01:02:58;;;;;;;9.00;3.22;;;;;;;28.42;31.69;100298.75;5023256;28;20115;-68
2022/09/20 01:05:27;;;;;;;6.55;3.75;;;;;;;28.42;30.98;100295.22;5017622;28;20049;-69
2022/09/20 01:07:58;;;;;;;8.27;4.10;;;;;;;28.42;30.74;100300.56;5019284;28;20491;-68
2022/09/20 01:10:27;;;;;;;5.00;3.40;;;;;;;28.39;31.93;100306.03;5018310;28;20053;-71
2022/09/20 01:12:55;;;;;;;6.20;3.83;;;;;;;28.28;32.76;100305.72;5021534;28;20058;-69
2022/09/20 01:15:26;;;;;;;10.60;4.18;;;;;;;28.18;32.99;100310.69;5021146;28;20049;-69
2022/09/20 01:17:58;;;;;;;8.50;4.05;;;;;;;28.09;32.58;100321.78;5025696;28;20103;-71
2022/09/20 01:20:28;;;;;;;7.10;3.80;;;;;;;27.97;32.13;100318.78;5019164;28;20046;-70
2022/09/20 01:23:13;;;;;;;10.05;3.85;;;;;;;27.87;32.06;100314.84;5021717;28;20080;-73
2022/09/20 01:26:13;;;;;;;6.40;3.47;;;;;;;27.77;32.87;100321.53;5035378;28;20513;-72
2022/09/20 01:28:47;;;;;;;5.00;3.38;;;;;;;27.72;33.09;100329.75;5010287;28;20061;-71
2022/09/20 01:31:22;;;;;;;6.35;3.55;;;;;;;27.64;33.75;100331.03;5023670;28;20048;-70
2022/09/20 01:33:54;;;;;;;8.15;3.75;;;;;;;27.58;34.24;100337.53;5024781;28;20569;-70
2022/09/20 01:36:27;;;;;;;5.28;3.30;;;;;;;27.53;33.78;100339.53;5020190;28;20072;-70
2022/09/20 01:39:09;;;;;;;10.80;3.60;;;;;;;27.49;35.11;100335.31;5025580;28;20045;-69
2022/09/20 01:41:43;;;;;;;11.55;4.80;;;;;;;27.44;34.78;100339.97;5028421;28;20487;-71
2022/09/20 01:44:22;;;;;;;5.85;3.50;;;;;;;27.36;34.45;100343.84;5023081;28;20415;-69
2022/09/20 01:46:58;;;;;;;12.52;3.80;;;;;;;27.29;35.43;100344.22;5015976;28;20419;-68
2022/09/20 01:49:37;;;;;;;8.65;3.38;;;;;;;27.19;36.27;100341.09;5026285;28;20057;-68
2022/09/20 01:52:32;;;;;;;15.65;4.65;;;;;;;27.05;37.31;100348.81;5020595;28;20478;-68
2022/09/20 01:55:46;;;;;;;7.68;3.65;;;;;;;26.91;36.98;100346.78;5020289;28;20411;-69
2022/09/20 01:58:34;;;;;;;8.52;3.70;;;;;;;26.71;37.17;100345.03;5003434;28;20479;-68
2022/09/20 02:01:39;;;;;;;8.73;3.40;;;;;;;26.64;36.91;100354.16;5025205;28;20068;-68
2022/09/20 02:04:40;;;;;;;9.52;3.90;;;;;;;26.51;36.47;100357.31;5018458;28;20111;-67
2022/09/20 02:07:47;;;;;;;5.90;3.30;;;;;;;26.37;37.51;100354.41;4996019;28;20185;-68
2022/09/20 02:10:58;;;;;;;12.45;3.97;;;;;;;26.23;37.36;100357.63;5025320;28;20042;-69
2022/09/20 02:13:32;;;;;;;7.63;4.00;;;;;;;26.11;37.84;100361.66;4988346;28;20061;-69
2022/09/20 02:16:22;;;;;;;9.07;4.35;;;;;;;26.02;37.95;100363.81;5019508;28;20042;-71
2022/09/20 02:19:22;;;;;;;5.03;3.70;;;;;;;25.84;38.02;100358.31;5026910;28;20053;-70
2022/09/20 02:22:07;;;;;;;7.05;3.95;;;;;;;25.75;37.81;100364.00;5026859;28;20045;-69
2022/09/20 02:24:44;;;;;;;5.07;3.70;;;;;;;25.64;39.33;100360.91;5022021;28;20054;-71
2022/09/20 02:27:23;;;;;;;8.77;4.03;;;;;;;25.54;39.60;100372.75;5025189;28;20053;-69
2022/09/20 02:30:08;;;;;;;5.82;3.55;;;;;;;25.41;39.77;100378.53;5027104;28;20048;-71
2022/09/20 02:33:11;;;;;;;9.50;5.18;;;;;;;25.25;39.73;100383.53;5022865;28;20049;-69
2022/09/20 02:35:59;;;;;;;7.78;4.35;;;;;;;25.07;39.88;100382.41;5016683;28;20055;-71
2022/09/20 02:38:42;;;;;;;9.27;3.83;;;;;;;24.97;41.36;100382.78;5022723;28;20045;-73
2022/09/20 02:41:48;;;;;;;8.85;3.72;;;;;;;24.87;41.04;100380.47;5031100;28;20221;-70
2022/09/20 02:44:25;;;;;;;7.10;4.40;;;;;;;24.75;41.24;100394.13;5023997;28;20069;-70
2022/09/20 02:47:02;;;;;;;8.68;4.78;;;;;;;24.62;41.35;100403.41;5023788;28;20041;-72
2022/09/20 02:49:39;;;;;;;8.02;3.70;;;;;;;24.46;41.72;100397.75;5025504;28;20453;-69
2022/09/20 02:52:21;;;;;;;6.75;3.85;;;;;;;24.33;43.78;100409.66;5017859;28;20077;-70
2022/09/20 02:54:59;;;;;;;10.35;4.80;;;;;;;24.23;44.27;100401.16;5014601;28;21317;-69
2022/09/20 02:57:38;;;;;;;6.75;3.75;;;;;;;24.15;43.99;100400.56;5020407;28;20044;-69
2022/09/20 03:00:10;;;;;;;8.27;3.70;;;;;;;24.08;43.96;100406.97;5022511;28;21223;-70
2022/09/20 03:02:51;;;;;;;11.00;4.15;;;;;;;23.98;42.80;100404.59;5023784;28;20050;-69
2022/09/20 03:05:26;;;;;;;11.32;4.60;;;;;;;23.90;43.73;100417.19;5021070;28;20653;-68
2022/09/20 03:08:21;;;;;;;7.43;4.45;;;;;;;23.79;43.36;100414.00;5024325;28;20042;-69
2022/09/20 03:10:58;;;;;;;6.90;4.38;;;;;;;23.71;43.67;100421.25;5030575;28;20054;-69
2022/09/20 03:13:41;;;;;;;6.20;3.80;;;;;;;23.60;43.70;100419.81;5014637;28;20894;-69
2022/09/20 03:16:19;;;;;;;10.23;4.47;;;;;;;23.53;43.91;100422.69;5023605;28;20064;-70
2022/09/20 03:18:55;;;;;;;10.70;5.65;;;;;;;23.47;44.00;100422.84;5021151;28;20494;-70
2022/09/20 03:21:37;;;;;;;8.60;4.28;;;;;;;23.43;44.51;100432.63;5021154;28;20045;-69
2022/09/20 03:24:19;;;;;;;13.20;5.43;;;;;;;23.36;44.75;100428.44;5020763;28;20045;-69
2022/09/20 03:26:57;;;;;;;14.07;5.93;;;;;;;23.31;44.80;100444.41;5025629;28;20045;-69
2022/09/20 03:29:43;;;;;;;10.05;5.43;;;;;;;23.26;45.67;100442.81;5024348;28;20057;-70
2022/09/20 03:32:27;;;;;;;15.05;6.78;;;;;;;23.18;45.52;100443.91;5028475;28;20049;-70
2022/09/20 03:35:09;;;;;;;16.52;7.18;;;;;;;23.13;44.88;100440.50;5021824;28;20056;-72
2022/09/20 03:37:52;;;;;;;13.50;7.70;;;;;;;23.08;45.13;100437.13;5026893;28;21018;-69
2022/09/20 03:40:52;;;;;;;16.35;8.35;;;;;;;22.99;45.03;100432.97;5020784;28;20672;-69
2022/09/20 03:43:35;;;;;;;12.15;6.60;;;;;;;22.97;45.77;100439.16;5019816;28;20041;-69
2022/09/20 03:46:17;;;;;;;14.73;6.97;;;;;;;22.92;46.16;100446.34;5024877;28;20053;-69
2022/09/20 03:49:06;;;;;;;16.05;7.78;;;;;;;22.85;45.79;100442.13;5026490;28;20049;-75
2022/09/20 03:51:40;;;;;;;16.08;7.32;;;;;;;22.79;46.13;100446.66;5023543;28;20779;-75
2022/09/20 03:54:38;;;;;;;20.88;8.15;;;;;;;22.72;46.44;100442.47;5029204;28;20518;-74
2022/09/20 03:57:38;;;;;;;12.73;7.60;;;;;;;22.67;46.35;100446.97;5008858;28;20085;-76
2022/09/20 04:00:25;;;;;;;19.98;8.30;;;;;;;22.52;46.45;100426.28;5024567;28;20541;-75
2022/09/20 04:03:18;;;;;;;17.77;8.27;;;;;;;22.52;46.64;100442.09;5025779;28;20057;-76
2022/09/20 04:06:05;;;;;;;17.10;8.23;;;;;;;22.46;46.44;100444.88;5019515;28;20660;-74
2022/09/20 04:08:56;;;;;;;17.10;8.68;;;;;;;22.40;46.58;100443.22;5027704;28;20046;-74
2022/09/20 04:11:34;;;;;;;13.95;7.93;;;;;;;22.34;47.72;100443.41;5020576;28;20432;-76
2022/09/20 04:14:17;;;;;;;12.48;6.55;;;;;;;22.27;48.41;100447.97;5022146;28;20050;-73
2022/09/20 04:16:54;;;;;;;12.88;7.78;;;;;;;22.19;48.95;100447.22;5022822;28;20406;-74
2022/09/20 04:19:30;;;;;;;11.45;7.20;;;;;;;22.14;49.46;100446.47;5022394;28;20057;-75
2022/09/20 04:22:00;;;;;;;12.55;7.25;;;;;;;22.08;49.26;100451.88;5021041;28;20380;-74
2022/09/20 04:24:41;;;;;;;10.93;6.68;;;;;;;21.97;50.66;100449.50;5022221;28;20053;-74
2022/09/20 04:27:16;;;;;;;15.40;6.95;;;;;;;21.82;50.72;100458.59;5024341;28;20461;-72
2022/09/20 04:29:53;;;;;;;14.02;7.63;;;;;;;21.70;51.19;100465.00;5021373;28;20042;-74
2022/09/20 04:32:31;;;;;;;14.57;7.05;;;;;;;21.58;51.48;100462.63;5020609;28;20091;-75
2022/09/20 04:38:04;;;;;;;11.13;6.20;;;;;;;21.40;51.81;100479.66;5022902;28;20056;-75
2022/09/20 04:40:54;;;;;;;11.45;5.68;;;;;;;21.31;52.62;100480.66;5021961;28;20068;-74
2022/09/20 04:44:00;;;;;;;11.05;6.32;;;;;;;21.21;53.32;100489.63;5018897;28;20056;-77
2022/09/20 04:47:07;;;;;;;10.13;6.50;;;;;;;21.11;52.41;100491.53;5013105;28;20057;-75
2022/09/20 04:50:13;;;;;;;10.65;7.13;;;;;;;21.01;52.93;100499.66;5010152;28;20682;-77
2022/09/20 04:53:22;;;;;;;17.25;7.07;;;;;;;20.86;52.72;100506.03;5018551;28;20041;-74
2022/09/20 04:55:54;;;;;;;16.15;6.97;;;;;;;20.75;53.01;100500.94;5021274;28;20050;-75
2022/09/20 04:58:47;;;;;;;15.45;7.43;;;;;;;20.57;53.41;100491.63;5028511;28;20490;-75
2022/09/20 05:01:47;;;;;;;14.00;6.70;;;;;;;20.44;53.61;100496.16;5029340;28;20072;-76
2022/09/20 05:05:00;;;;;;;13.88;7.40;;;;;;;20.38;54.49;100495.38;5018838;28;20099;-74
2022/09/20 05:08:04;;;;;;;12.02;6.40;;;;;;;20.29;55.21;100496.38;5033571;28;20041;-75
2022/09/20 05:11:13;;;;;;;13.85;6.93;;;;;;;20.25;55.55;100499.97;5030959;28;20487;-75
2022/09/20 05:14:01;;;;;;;15.57;6.75;;;;;;;20.20;55.71;100507.00;5032800;28;20628;-73
2022/09/20 05:16:42;;;;;;;11.52;6.90;;;;;;;20.16;55.90;100503.56;5026071;28;20135;-72
2022/09/20 05:19:26;;;;;;;15.18;7.38;;;;;;;20.10;55.43;100511.53;5043652;28;20064;-72
2022/09/20 05:22:17;;;;;;;13.10;7.47;;;;;;;20.04;54.44;100504.63;5025829;28;20044;-70
2022/09/20 05:25:12;;;;;;;17.60;7.03;;;;;;;19.99;55.47;100518.69;5016317;28;20510;-71
2022/09/20 05:27:48;;;;;;;15.75;7.55;;;;;;;19.93;55.90;100513.50;5029098;28;20108;-69
2022/09/20 05:30:30;;;;;;;15.98;7.10;;;;;;;19.87;56.17;100507.44;5024717;28;20048;-70
2022/09/20 05:33:05;;;;;;;;;;;;;;;19.85;56.45;100517.09;5022684;28;20579;-70
2022/09/20 05:35:43;;;;;;;11.93;6.63;;;;;;;19.83;56.33;100518.00;5025868;28;19947;-71
2022/09/20 05:38:19;;;;;;;16.70;8.20;;;;;;;19.80;56.68;100503.16;5039716;28;20377;-71
2022/09/20 05:41:04;;;;;;;16.55;8.10;;;;;;;19.74;56.23;100508.47;5028722;28;20061;-71
2022/09/20 05:43:36;;;;;;;12.07;7.40;;;;;;;19.65;56.38;100509.44;5025691;28;20132;-69
2022/09/20 05:46:16;;;;;;;10.05;6.20;;;;;;;19.60;56.34;100510.38;5028705;28;20054;-71
2022/09/20 05:48:56;;;;;;;14.93;7.90;;;;;;;19.49;56.32;100500.00;5030678;28;20490;-69
2022/09/20 05:51:44;;;;;;;13.20;7.25;;;;;;;19.44;57.23;100504.44;5017965;28;20184;-71
2022/09/20 05:54:30;;;;;;;13.27;7.43;;;;;;;19.38;57.90;100505.38;5023556;28;20062;-71
2022/09/20 05:57:12;;;;;;;14.30;6.13;;;;;;;19.36;57.20;100504.53;5016172;28;20441;-71
2022/09/20 05:59:57;;;;;;;14.77;6.38;;;;;;;19.32;57.36;100513.31;5032412;28;20052;-72
2022/09/20 06:02:35;;;;;;;12.35;6.43;;;;;;;19.26;57.26;100505.47;5021810;28;20050;-71
2022/09/20 06:05:13;;;;;;;14.90;6.60;;;;;;;19.19;57.49;100503.81;5019890;28;20515;-71
2022/09/20 06:08:11;;;;;;;12.23;6.03;;;;;;;19.14;57.24;100511.72;5026144;28;20054;-71
2022/09/20 06:10:56;;;;;;;12.32;7.50;;;;;;;19.11;57.32;100516.16;5025492;28;20049;-70
2022/09/20 06:13:39;;;;;;;14.80;6.55;;;;;;;19.07;57.96;100524.91;5020905;28;20053;-70
2022/09/20 06:16:18;;;;;;;14.05;7.40;;;;;;;18.98;58.38;100520.63;5023078;28;20487;-70
2022/09/20 06:18:54;;;;;;;10.98;6.40;;;;;;;18.90;58.77;100525.94;5021682;28;20141;-70
2022/09/20 06:21:34;;;;;;;12.70;7.32;;;;;;;18.87;59.08;100518.09;5033861;28;20053;-69
2022/09/20 06:24:05;;;;;;;10.52;6.30;;;;;;;18.75;61.08;100512.91;5026118;28;20041;-68
2022/09/20 06:26:37;;;;;;;17.05;7.25;;;;;;;18.66;61.00;100516.47;5019474;28;20057;-70
2022/09/20 06:29:12;;;;;;;12.27;6.85;;;;;;;18.62;60.77;100507.78;5023482;28;20069;-70
2022/09/20 06:31:43;;;;;;;12.73;6.70;;;;;;;18.61;60.72;100521.75;5022597;28;20572;-71
2022/09/20 06:34:15;;;;;;;12.20;6.93;;;;;;;18.58;60.64;100516.53;5022691;28;20503;-70
2022/09/20 06:42:28;;;;;;;12.65;6.55;;;;;;;18.44;61.67;100515.78;5023971;28;20059;-70
2022/09/20 06:44:57;;;;;;;10.77;5.88;;;;;;;18.37;62.03;100511.44;5028227;28;20602;-70
2022/09/20 06:47:27;;;;;;;18.17;6.35;;;;;;;18.32;61.79;100508.84;5022742;28;20045;-70
2022/09/20 06:49:57;;;;;;;15.70;6.22;;;;;;;18.27;62.00;100509.75;5027790;28;20442;-71
2022/09/20 06:52:26;;;;;;;11.70;6.60;;;;;;;18.21;62.09;100505.44;5034646;28;20130;-71
2022/09/20 06:54:56;;;;;;;13.20;5.78;;;;;;;18.17;62.25;100504.56;5025434;28;20491;-71
2022/09/20 06:57:31;;;;;;;17.92;5.88;;;;;;;18.13;62.91;100508.09;5020908;28;20088;-71
2022/09/20 06:59:59;;;;;;;13.45;6.22;;;;;;;18.09;62.85;100500.25;5024738;28;20061;-71
2022/09/20 07:02:29;;;;;;;12.02;6.22;;;;;;;18.04;62.71;100502.91;5023713;28;20085;-70
2022/09/20 07:04:58;;;;;;;13.15;6.25;;;;;;;17.93;63.73;100505.56;5021368;28;20049;-70
2022/09/20 07:07:27;;;;;;;12.55;6.30;;;;;;;17.88;63.41;100514.31;5029362;28;20055;-70
2022/09/20 07:09:55;;;;;;;9.85;5.55;;;;;;;17.83;64.39;100516.09;5023532;28;20688;-69
2022/09/20 07:12:24;;;;;;;11.13;6.20;;;;;;;17.75;66.44;100521.31;5027256;28;20048;-69
2022/09/20 07:14:53;;;;;;;9.68;5.82;;;;;;;17.64;66.95;100523.09;5029801;28;20057;-69
2022/09/20 07:17:21;;;;;;;10.73;5.68;;;;;;;17.58;66.45;100519.63;5032370;28;20136;-69
2022/09/20 07:19:52;;;;;;;9.15;4.88;;;;;;;17.60;66.61;100522.25;5028747;28;20495;-70
2022/09/20 07:22:20;;;;;;;15.10;6.43;;;;;;;17.57;67.01;100527.50;5015941;28;20048;-71
2022/09/20 07:24:49;;;;;;;12.65;6.25;;;;;;;17.54;66.40;100533.59;5020234;28;21168;-72
2022/09/20 07:27:18;;;;;;;12.38;5.78;;;;;;;17.50;66.54;100524.03;5016939;28;20772;-70
2022/09/20 07:29:46;;;;;;;12.68;5.20;;;;;;;17.46;67.14;100526.66;5023835;28;20052;-71
2022/09/20 07:32:16;;;;;;;12.05;5.25;;;;;;;17.41;66.75;100523.16;5022756;28;20041;-72
2022/09/20 07:34:45;;;;;;;14.52;6.38;;;;;;;17.38;66.33;100527.53;5022172;28;20115;-69
2022/09/20 07:37:18;;;;;;;14.02;5.15;;;;;;;17.33;65.99;100523.19;5024415;28;20079;-70
2022/09/20 07:39:47;;;;;;;9.70;5.00;;;;;;;17.31;66.04;100531.03;5031847;28;20045;-70
2022/09/20 07:42:16;;;;;;;12.73;5.60;;;;;;;17.29;65.30;100524.91;5017414;28;20610;-71
2022/09/20 07:44:45;;;;;;;14.07;6.10;;;;;;;17.26;65.26;100519.72;5019863;28;20698;-71
2022/09/20 07:47:14;;;;;;;9.30;4.50;;;;;;;17.25;65.60;100524.94;5020516;28;20056;-71
2022/09/20 07:49:42;;;;;;;9.18;4.25;;;;;;;17.17;65.65;100523.19;5029357;28;20080;-70
2022/09/20 07:52:13;;;;;;;10.57;5.38;;;;;;;17.05;65.40;100515.38;5032317;28;20037;-71
2022/09/20 07:54:44;;;;;;;16.45;5.28;;;;;;;17.05;65.52;100515.38;5016740;28;20046;-71
2022/09/20 07:57:13;;;;;;;11.05;5.95;;;;;;;16.98;66.44;100510.16;5020632;28;20611;-71
2022/09/20 07:59:42;;;;;;;11.48;6.05;;;;;;;16.95;66.44;100506.69;5033661;28;20048;-70
2022/09/20 08:02:15;;;;;;;12.23;5.75;;;;;;;16.95;66.65;100511.91;5023122;28;20045;-71
2022/09/20 08:04:43;;;;;;;12.45;5.38;;;;;;;16.93;67.36;100516.25;5021482;28;20407;-71
2022/09/20 08:07:13;;;;;;;13.52;5.38;;;;;;;16.91;67.02;100520.63;5026705;28;20578;-71
2022/09/20 08:09:43;;;;;;;14.25;5.88;;;;;;;16.88;66.87;100515.41;5029016;28;20053;-71
2022/09/20 08:12:13;;;;;;;8.70;4.82;;;;;;;16.87;67.74;100518.00;5029353;28;20490;-70
2022/09/20 08:14:41;;;;;;;10.40;5.60;;;;;;;16.84;68.20;100511.03;5020599;28;20393;-70
2022/09/20 08:17:11;;;;;;;11.43;5.38;;;;;;;16.82;68.24;100511.91;5032887;28;20041;-71
2022/09/20 08:19:41;;;;;;;12.45;4.97;;;;;;;16.77;69.10;100501.44;5029883;28;20080;-72
2022/09/20 08:22:11;;;;;;;10.45;4.75;;;;;;;16.73;69.30;100502.28;5023020;28;20186;-70
2022/09/20 08:24:40;;;;;;;8.50;5.05;;;;;;;16.70;68.98;100500.56;5024749;28;20071;-70
2022/09/20 08:27:11;;;;;;;14.88;5.18;;;;;;;16.67;68.98;100504.91;5031210;28;20079;-71
2022/09/20 08:29:40;;;;;;;15.10;5.87;;;;;;;16.63;69.32;100498.81;5024469;28;20168;-71
2022/09/20 08:32:10;;;;;;;11.40;5.00;;;;;;;16.59;68.37;100504.03;5018295;28;20095;-70
2022/09/20 08:34:39;;;;;;;10.25;4.78;;;;;;;16.55;68.59;100496.19;5026464;28;20410;-70
2022/09/20 08:37:08;;;;;;;11.27;4.50;;;;;;;16.50;69.94;100502.28;5023222;28;20069;-70
2022/09/20 08:39:36;;;;;;;12.38;5.45;;;;;;;16.47;70.07;100497.94;5031566;28;20046;-70
2022/09/20 08:42:15;;;;;;;10.38;4.68;;;;;;;16.45;70.47;100490.97;5025234;28;20511;-71
2022/09/20 08:44:51;;;;;;;11.50;5.85;;;;;;;16.41;70.52;100492.69;5021959;28;20052;-70
2022/09/20 08:47:25;;;;;;;8.15;4.82;;;;;;;16.38;69.42;100495.31;5022324;28;20212;-71
2022/09/20 08:49:54;;;;;;;7.95;4.95;;;;;;;16.36;70.34;100494.44;5028633;28;20054;-70
2022/09/20 08:52:30;;;;;;;10.65;4.65;;;;;;;16.29;71.25;100500.50;5027209;28;20511;-68
2022/09/20 08:54:59;;;;;;;9.98;5.07;;;;;;;16.20;71.87;100509.19;5027027;28;20459;-70
2022/09/20 08:57:33;;;;;;;14.77;4.78;;;;;;;16.09;73.30;100514.38;5025608;28;20052;-69
2022/09/20 09:00:04;;;;;;;10.90;4.88;;;;;;;16.00;72.16;100516.94;5024176;28;20045;-69
2022/09/20 09:02:34;;;;;;;6.60;4.57;;;;;;;15.94;71.34;100516.91;5024187;28;20424;-69
2022/09/20 09:05:12;;;;;;;13.43;5.07;;;;;;;15.88;71.15;100514.31;5024918;28;20049;-70
2022/09/20 09:07:40;;;;;;;9.82;4.38;;;;;;;15.87;71.75;100512.53;5031240;28;20045;-70
2022/09/20 09:10:10;;;;;;;10.80;4.78;;;;;;;15.86;71.53;100518.66;5028635;28;20506;-70
2022/09/20 09:12:45;;;;;;;13.13;6.38;;;;;;;15.85;71.69;100522.09;5031870;28;20064;-70
2022/09/20 09:15:28;;;;;;;10.77;4.88;;;;;;;15.82;72.40;100522.09;5029891;28;20050;-71
2022/09/20 09:17:56;;;;;;;8.23;4.15;;;;;;;15.79;71.73;100528.19;5022715;28;20088;-69
2022/09/20 09:20:26;;;;;;;12.05;4.78;;;;;;;15.79;72.66;100533.41;5031479;28;20068;-70
2022/09/20 09:23:03;;;;;;;9.65;4.53;;;;;;;15.74;73.23;100523.81;5027321;28;20052;-70
2022/09/20 09:25:33;;;;;;;6.47;4.53;;;;;;;15.68;72.96;100529.81;5029411;28;20145;-70
2022/09/20 09:28:13;;;;;;;9.43;4.75;;;;;;;15.64;72.75;100522.84;5033993;28;20121;-70
2022/09/20 09:30:43;;;;;;;8.40;4.60;;;;;;;15.63;73.29;100529.81;5037107;28;20045;-71
2022/09/20 09:33:26;;;;;;;8.57;4.53;;;;;;;15.60;73.15;100528.91;5022693;28;20491;-70
2022/09/20 09:35:59;;;;;;;9.88;4.30;;;;;;;15.58;73.01;100521.09;5023061;28;20053;-71
2022/09/20 09:38:28;;;;;;;;;;;;;;;15.57;73.39;100506.28;5025857;28;20060;-71
2022/09/20 09:41:00;;;;;;;8.48;4.25;;;;;;;15.54;73.55;100501.06;5021224;28;19922;-70
2022/09/20 09:43:32;;;;;;;13.98;4.75;;;;;;;15.51;73.42;100506.28;5026026;28;20121;-71
2022/09/20 09:46:20;;;;;;;9.07;4.07;;;;;;;15.49;73.14;100502.78;5022937;28;20050;-70
2022/09/20 09:48:50;;;;;;;9.35;4.00;;;;;;;15.45;73.75;100499.28;5028134;28;20130;-70
2022/09/20 09:51:22;;;;;;;10.07;4.13;;;;;;;15.43;73.34;100487.09;5040443;28;20048;-71
2022/09/20 09:53:53;;;;;;;12.50;4.72;;;;;;;15.41;72.97;100489.69;5025548;28;20455;-70
2022/09/20 09:56:41;;;;;;;9.13;3.57;;;;;;;15.40;72.87;100487.09;5018124;28;20049;-70
2022/09/20 09:59:39;;;;;;;8.75;3.88;;;;;;;15.38;73.12;100483.59;5020638;28;20046;-70
2022/09/20 10:02:30;;;;;;;6.93;3.40;;;;;;;15.37;72.28;100484.44;5039721;28;20041;-70
2022/09/20 10:05:07;;;;;;;4.35;2.92;;;;;;;15.36;71.54;100490.53;5020687;28;20547;-70
2022/09/20 10:07:43;;;;;;;5.28;2.67;;;;;;;15.34;70.58;100479.22;5023029;28;20049;-70
2022/09/20 10:10:24;;;;;;;5.13;2.42;;;;;;;15.32;68.70;100480.97;5026041;28;20049;-70
2022/09/20 10:13:05;;;;;;;8.30;3.22;;;;;;;15.30;69.04;100486.16;5025360;28;20414;-70
2022/09/20 10:15:42;;;;;;;7.03;2.75;;;;;;;15.26;68.88;100480.06;5027937;28;20049;-70
2022/09/20 10:18:27;;;;;;;6.63;2.35;;;;;;;15.27;68.60;100480.94;5031606;28;20670;-70
2022/09/20 10:21:08;;;;;;;6.15;2.35;;;;;;;15.25;68.55;100475.69;5027756;28;20057;-72
2022/09/20 10:24:05;;;;;;;6.47;2.55;;;;;;;15.23;67.24;100477.44;5021440;28;20136;-70
2022/09/20 10:26:46;;;;;;;4.93;2.28;;;;;;;15.22;67.83;100480.03;5037542;28;20459;-71
2022/09/20 10:29:25;;;;;;;3.92;2.30;;;;;;;15.19;67.61;100478.28;5040551;28;20056;-71
2022/09/20 10:32:10;;;;;;;3.45;2.38;;;;;;;15.19;67.73;100490.47;5026481;28;21205;-72
2022/09/20 10:35:01;;;;;;;7.88;4.22;;;;;;;15.16;70.10;100493.88;5020457;28;20539;-71
2022/09/20 10:37:43;;;;;;;8.02;3.08;;;;;;;15.15;72.12;100492.16;5016934;28;20156;-70
2022/09/20 10:43:13;;;;;;;9.38;3.58;;;;;;;15.12;72.22;100494.75;5022201;28;20052;-70
2022/09/20 10:43:26;;;;;;;11.98;4.00;;;;;;;15.10;72.58;100495.59;5024024;28;20108;-70
2022/09/20 10:46:04;;;;;;;9.65;3.20;;;;;;;15.08;72.59;100490.38;5026602;28;20124;-71
2022/09/20 10:48:41;;;;;;;9.15;3.72;;;;;;;15.07;72.35;100493.81;5022489;28;20076;-69
2022/09/20 10:51:17;;;;;;;7.95;3.63;;;;;;;15.08;71.92;100487.78;5024195;28;20050;-70
2022/09/20 10:53:55;;;;;;;8.77;3.75;;;;;;;15.09;71.89;100492.09;5019601;28;20046;-68
2022/09/20 10:56:31;;;;;;;6.68;3.47;;;;;;;15.10;72.28;100493.00;5015571;28;20527;-70
2022/09/20 10:59:35;;;;;;;8.32;3.10;;;;;;;15.10;72.38;100495.59;5026882;28;20052;-71
2022/09/20 11:02:17;;;;;;;5.70;3.15;;;;;;;15.04;72.13;100499.88;5022750;28;20709;-70
2022/09/20 11:05:10;;;;;;;6.80;3.30;;;;;;;15.04;71.80;100499.88;5026103;28;20076;-71
2022/09/20 11:07:51;;;;;;;7.22;3.45;;;;;;;15.03;71.76;100492.09;5021333;28;20182;-71
2022/09/20 11:10:24;;;;;;;6.68;3.15;;;;;;;15.04;71.45;100502.50;5022549;28;20074;-71
2022/09/20 11:13:00;;;;;;;4.88;2.63;;;;;;;14.99;70.36;100485.09;5028086;28;20054;-71
2022/09/20 11:15:33;;;;;;;11.68;2.83;;;;;;;15.04;69.59;100499.03;5030822;28;20455;-71
2022/09/20 11:18:11;;;;;;;8.68;2.70;;;;;;;15.04;69.64;100504.25;5030579;28;20538;-70
2022/09/20 11:20:46;;;;;;;4.07;2.33;;;;;;;15.02;69.63;100501.59;5033053;28;20045;-71
2022/09/20 11:23:20;;;;;;;5.93;2.53;;;;;;;15.01;68.69;100499.00;5030672;28;20519;-69
2022/09/20 11:25:51;;;;;;;4.05;2.25;;;;;;;14.99;69.83;100505.94;5021234;28;20053;-70
2022/09/20 11:28:27;;;;;;;3.97;2.00;;;;;;;14.98;68.84;100512.00;5017493;28;20061;-70
2022/09/20 11:31:03;;;;;;;7.10;2.45;;;;;;;14.96;70.12;100517.22;5026419;28;20560;-70
2022/09/20 11:33:36;;;;;;;6.35;2.55;;;;;;;14.93;70.56;100518.91;5024334;28;20045;-70
2022/09/20 11:36:20;;;;;;;4.03;2.33;;;;;;;14.93;69.01;100511.97;5024628;28;20140;-70
2022/09/20 11:38:54;;;;;;;6.38;3.08;;;;;;;14.97;68.55;100512.88;5019619;28;20519;-70
2022/09/20 11:41:27;;;;;;;5.65;2.40;;;;;;;15.00;68.59;100511.19;5025055;28;20049;-70
2022/09/20 11:44:00;;;;;;;5.10;2.60;;;;;;;15.04;69.47;100509.44;5028716;28;20053;-70
2022/09/20 11:46:34;;;;;;;4.95;2.10;;;;;;;15.07;69.70;100509.47;5022849;28;20590;-70
2022/09/20 11:49:07;;;;;;;5.78;1.85;;;;;;;15.04;67.11;100501.63;5020486;28;20046;-71
2022/09/20 11:51:53;;;;;;;2.40;1.40;;;;;;;15.10;65.17;100503.44;5021643;28;20053;-71
2022/09/20 11:54:38;;;;;;;2.33;1.60;;;;;;;15.10;64.49;100512.09;5026930;28;20077;-72
2022/09/20 11:57:07;;;;;;;9.43;2.63;;;;;;;15.14;63.26;100519.09;5022239;28;20050;-70
2022/09/20 11:59:38;;;;;;;3.85;1.70;;;;;;;15.17;63.30;100515.63;5022278;28;20463;-70
2022/09/20 12:02:20;;;;;;;3.28;1.98;;;;;;;15.19;60.96;100514.78;5024174;28;20049;-71
2022/09/20 12:04:52;;;;;;;5.13;1.77;;;;;;;15.24;59.78;100522.63;5022102;28;20469;-70
2022/09/20 12:07:27;;;;;;;3.13;1.88;;;;;;;15.23;60.36;100516.56;5031407;28;20411;-70
2022/09/20 12:09:58;;;;;;;2.55;1.85;;;;;;;15.25;61.18;100530.44;5034185;28;20052;-71
2022/09/20 12:12:38;;;;;;;3.88;1.85;;;;;;;15.28;63.76;100540.03;5025725;28;20535;-70
2022/09/20 12:15:22;;;;;;;3.35;1.80;;;;;;;15.28;62.23;100532.22;5034621;28;20506;-70
2022/09/20 12:18:23;;;;;;;3.92;1.58;;;;;;;15.31;61.77;100529.63;5026518;28;20069;-70
2022/09/20 12:21:19;;;;;;;2.60;1.88;;;;;;;15.36;60.75;100537.47;5022943;28;20560;-70
2022/09/20 12:24:23;;;;;;;2.15;1.77;;;;;;;15.36;60.32;100551.38;5016771;28;20054;-69
2022/09/20 12:26:56;;;;;;;3.58;1.88;;;;;;;15.38;60.46;100552.25;5024180;28;20062;-70